sensor_id;sensor_type;location;lat;lon;timestamp;P1;durP1;ratioP1;P2;durP2;ratioP2
51489;SDS011;57752;53.574;9.736;2023-08-01T00:02:00;11.35;;;3.20;;
51489;SDS011;57752;53.574;9.736;2023-08-01T00:07:00;9.57;;;3.03;;
51489;SDS011;57752;53.574;9.736;2023-08-01T00:12:00;12.18;;;3.67;;
51489;SDS011;57752;53.574;9.736;2023-08-01T00:17:00;10.13;;;3.20;;
51489;SDS011;57752;53.574;9.736;2023-08-01T00:22:00;9.85;;;3.20;;
51489;SDS011;57752;53.574;9.736;2023-08-01T00:27:00;10.50;;;3.40;;
51489;SDS011;57752;53.574;9.736;2023-08-01T00:32:01;9.20;;;3.03;;
51489;SDS011;57752;53.574;9.736;2023-08-01T00:37:01;11.88;;;3.33;;
51489;SDS011;57752;53.574;9.736;2023-08-01T00:42:01;11.55;;;3.50;;
51489;SDS011;57752;53.574;9.736;2023-08-01T00:47:01;10.60;;;3.60;;
51489;SDS011;57752;53.574;9.736;2023-08-01T00:52:01;10.20;;;3.78;;
51489;SDS011;57752;53.574;9.736;2023-08-01T00:57:02;10.32;;;3.55;;
51489;SDS011;57752;53.574;9.736;2023-08-01T01:02:03;11.82;;;3.80;;
51489;SDS011;57752;53.574;9.736;2023-08-01T01:07:05;11.38;;;4.90;;
51489;SDS011;57752;53.574;9.736;2023-08-01T01:12:06;13.73;;;6.53;;
51489;SDS011;57752;53.574;9.736;2023-08-01T01:17:07;13.10;;;5.28;;
51489;SDS011;57752;53.574;9.736;2023-08-01T01:22:08;12.60;;;5.45;;
51489;SDS011;57752;53.574;9.736;2023-08-01T01:27:08;14.85;;;6.55;;
51489;SDS011;57752;53.574;9.736;2023-08-01T01:32:09;17.27;;;8.48;;
51489;SDS011;57752;53.574;9.736;2023-08-01T01:37:09;17.38;;;8.60;;
51489;SDS011;57752;53.574;9.736;2023-08-01T01:42:10;18.70;;;8.23;;
51489;SDS011;57752;53.574;9.736;2023-08-01T01:47:13;18.65;;;9.05;;
51489;SDS011;57752;53.574;9.736;2023-08-01T01:52:13;20.73;;;11.23;;
51489;SDS011;57752;53.574;9.736;2023-08-01T01:57:13;18.60;;;9.38;;
51489;SDS011;57752;53.574;9.736;2023-08-01T02:02:13;21.52;;;10.88;;
51489;SDS011;57752;53.574;9.736;2023-08-01T02:07:14;21.17;;;11.32;;
51489;SDS011;57752;53.574;9.736;2023-08-01T02:12:14;24.17;;;13.45;;
51489;SDS011;57752;53.574;9.736;2023-08-01T02:17:14;21.33;;;11.43;;
51489;SDS011;57752;53.574;9.736;2023-08-01T02:22:14;26.88;;;12.50;;
51489;SDS011;57752;53.574;9.736;2023-08-01T02:27:15;25.83;;;12.95;;
51489;SDS011;57752;53.574;9.736;2023-08-01T02:32:15;33.20;;;15.15;;
51489;SDS011;57752;53.574;9.736;2023-08-01T02:37:15;34.40;;;15.35;;
51489;SDS011;57752;53.574;9.736;2023-08-01T02:42:15;29.30;;;16.35;;
51489;SDS011;57752;53.574;9.736;2023-08-01T02:47:15;32.97;;;16.48;;
51489;SDS011;57752;53.574;9.736;2023-08-01T02:52:16;31.85;;;16.95;;
51489;SDS011;57752;53.574;9.736;2023-08-01T02:57:16;30.67;;;16.65;;
51489;SDS011;57752;53.574;9.736;2023-08-01T03:02:16;35.10;;;18.63;;
51489;SDS011;57752;53.574;9.736;2023-08-01T03:07:16;39.95;;;17.75;;
51489;SDS011;57752;53.574;9.736;2023-08-01T03:12:16;37.00;;;18.30;;
51489;SDS011;57752;53.574;9.736;2023-08-01T03:17:16;31.98;;;16.05;;
51489;SDS011;57752;53.574;9.736;2023-08-01T03:22:16;43.53;;;19.88;;
51489;SDS011;57752;53.574;9.736;2023-08-01T03:27:17;31.92;;;16.17;;
51489;SDS011;57752;53.574;9.736;2023-08-01T03:32:17;33.30;;;17.10;;
51489;SDS011;57752;53.574;9.736;2023-08-01T03:37:17;32.45;;;16.75;;
51489;SDS011;57752;53.574;9.736;2023-08-01T03:42:18;35.05;;;17.42;;
51489;SDS011;57752;53.574;9.736;2023-08-01T03:47:18;34.70;;;18.27;;
51489;SDS011;57752;53.574;9.736;2023-08-01T03:52:18;34.47;;;17.05;;
51489;SDS011;57752;53.574;9.736;2023-08-01T03:57:19;27.98;;;14.25;;
51489;SDS011;57752;53.574;9.736;2023-08-01T04:02:19;37.78;;;18.00;;
51489;SDS011;57752;53.574;9.736;2023-08-01T04:07:19;40.58;;;18.17;;
51489;SDS011;57752;53.574;9.736;2023-08-01T04:12:19;39.40;;;18.65;;
51489;SDS011;57752;53.574;9.736;2023-08-01T04:17:19;36.83;;;18.83;;
51489;SDS011;57752;53.574;9.736;2023-08-01T04:22:19;41.47;;;19.92;;
51489;SDS011;57752;53.574;9.736;2023-08-01T04:27:19;40.97;;;21.00;;
51489;SDS011;57752;53.574;9.736;2023-08-01T04:32:20;42.80;;;20.88;;
51489;SDS011;57752;53.574;9.736;2023-08-01T04:37:20;41.20;;;20.73;;
51489;SDS011;57752;53.574;9.736;2023-08-01T04:42:22;38.88;;;19.58;;
51489;SDS011;57752;53.574;9.736;2023-08-01T04:47:23;43.83;;;20.33;;
51489;SDS011;57752;53.574;9.736;2023-08-01T04:52:23;38.60;;;18.95;;
51489;SDS011;57752;53.574;9.736;2023-08-01T04:57:23;33.42;;;18.10;;
51489;SDS011;57752;53.574;9.736;2023-08-01T05:02:23;36.67;;;18.05;;
51489;SDS011;57752;53.574;9.736;2023-08-01T05:07:23;31.83;;;16.13;;
51489;SDS011;57752;53.574;9.736;2023-08-01T05:12:24;28.20;;;14.00;;
51489;SDS011;57752;53.574;9.736;2023-08-01T05:17:24;27.63;;;15.20;;
51489;SDS011;57752;53.574;9.736;2023-08-01T05:22:24;28.75;;;15.10;;
51489;SDS011;57752;53.574;9.736;2023-08-01T05:27:24;31.88;;;15.52;;
51489;SDS011;57752;53.574;9.736;2023-08-01T05:32:24;23.27;;;13.07;;
51489;SDS011;57752;53.574;9.736;2023-08-01T05:37:24;26.83;;;14.60;;
51489;SDS011;57752;53.574;9.736;2023-08-01T05:42:24;29.05;;;13.50;;
51489;SDS011;57752;53.574;9.736;2023-08-01T05:47:25;22.70;;;11.35;;
51489;SDS011;57752;53.574;9.736;2023-08-01T05:52:25;27.30;;;14.07;;
51489;SDS011;57752;53.574;9.736;2023-08-01T05:57:25;26.38;;;13.13;;
51489;SDS011;57752;53.574;9.736;2023-08-01T06:02:25;23.92;;;11.13;;
51489;SDS011;57752;53.574;9.736;2023-08-01T06:07:26;19.55;;;10.68;;
51489;SDS011;57752;53.574;9.736;2023-08-01T06:12:26;23.70;;;11.02;;
51489;SDS011;57752;53.574;9.736;2023-08-01T06:17:26;18.40;;;8.95;;
51489;SDS011;57752;53.574;9.736;2023-08-01T06:22:26;19.10;;;9.30;;
51489;SDS011;57752;53.574;9.736;2023-08-01T06:27:26;17.38;;;8.25;;
51489;SDS011;57752;53.574;9.736;2023-08-01T06:32:26;18.10;;;7.78;;
51489;SDS011;57752;53.574;9.736;2023-08-01T06:37:27;19.25;;;8.52;;
51489;SDS011;57752;53.574;9.736;2023-08-01T06:42:27;17.63;;;7.35;;
51489;SDS011;57752;53.574;9.736;2023-08-01T06:47:27;16.77;;;6.90;;
51489;SDS011;57752;53.574;9.736;2023-08-01T06:52:27;17.65;;;7.13;;
51489;SDS011;57752;53.574;9.736;2023-08-01T06:57:27;17.30;;;6.72;;
51489;SDS011;57752;53.574;9.736;2023-08-01T07:02:28;15.43;;;6.20;;
51489;SDS011;57752;53.574;9.736;2023-08-01T07:07:28;15.43;;;5.72;;
51489;SDS011;57752;53.574;9.736;2023-08-01T07:12:28;14.32;;;5.20;;
51489;SDS011;57752;53.574;9.736;2023-08-01T07:17:28;12.95;;;5.10;;
51489;SDS011;57752;53.574;9.736;2023-08-01T07:22:28;13.02;;;5.10;;
51489;SDS011;57752;53.574;9.736;2023-08-01T07:27:28;13.02;;;4.75;;
51489;SDS011;57752;53.574;9.736;2023-08-01T07:32:29;18.38;;;5.38;;
51489;SDS011;57752;53.574;9.736;2023-08-01T07:37:29;13.63;;;4.85;;
51489;SDS011;57752;53.574;9.736;2023-08-01T07:42:29;16.42;;;5.55;;
51489;SDS011;57752;53.574;9.736;2023-08-01T07:47:29;15.85;;;5.50;;
51489;SDS011;57752;53.574;9.736;2023-08-01T07:52:29;18.73;;;6.38;;
51489;SDS011;57752;53.574;9.736;2023-08-01T07:57:29;16.48;;;5.32;;
51489;SDS011;57752;53.574;9.736;2023-08-01T08:02:29;16.65;;;6.47;;
51489;SDS011;57752;53.574;9.736;2023-08-01T08:07:29;17.98;;;5.80;;
51489;SDS011;57752;53.574;9.736;2023-08-01T08:12:30;15.68;;;6.20;;
51489;SDS011;57752;53.574;9.736;2023-08-01T08:17:30;16.95;;;5.45;;
51489;SDS011;57752;53.574;9.736;2023-08-01T08:22:31;17.80;;;6.03;;
51489;SDS011;57752;53.574;9.736;2023-08-01T08:27:31;14.45;;;5.50;;
51489;SDS011;57752;53.574;9.736;2023-08-01T08:32:31;14.00;;;5.35;;
51489;SDS011;57752;53.574;9.736;2023-08-01T08:37:31;15.63;;;5.85;;
51489;SDS011;57752;53.574;9.736;2023-08-01T08:42:33;16.23;;;6.53;;
51489;SDS011;57752;53.574;9.736;2023-08-01T08:47:36;14.48;;;6.35;;
51489;SDS011;57752;53.574;9.736;2023-08-01T08:52:38;14.60;;;6.85;;
51489;SDS011;57752;53.574;9.736;2023-08-01T08:57:38;15.27;;;6.85;;
51489;SDS011;57752;53.574;9.736;2023-08-01T09:02:39;14.65;;;6.07;;
51489;SDS011;57752;53.574;9.736;2023-08-01T09:07:42;13.07;;;5.22;;
51489;SDS011;57752;53.574;9.736;2023-08-01T09:12:42;16.33;;;6.75;;
51489;SDS011;57752;53.574;9.736;2023-08-01T09:17:51;15.50;;;6.80;;
51489;SDS011;57752;53.574;9.736;2023-08-01T09:22:52;12.70;;;5.25;;
51489;SDS011;57752;53.574;9.736;2023-08-01T09:27:52;12.02;;;4.80;;
51489;SDS011;57752;53.574;9.736;2023-08-01T09:32:52;13.38;;;4.40;;
51489;SDS011;57752;53.574;9.736;2023-08-01T09:37:53;10.30;;;3.88;;
51489;SDS011;57752;53.574;9.736;2023-08-01T09:42:53;11.35;;;4.00;;
51489;SDS011;57752;53.574;9.736;2023-08-01T09:47:53;12.27;;;3.80;;
51489;SDS011;57752;53.574;9.736;2023-08-01T09:52:53;10.35;;;3.83;;
51489;SDS011;57752;53.574;9.736;2023-08-01T09:57:54;10.57;;;3.83;;
51489;SDS011;57752;53.574;9.736;2023-08-01T10:02:59;10.02;;;3.65;;
51489;SDS011;57752;53.574;9.736;2023-08-01T10:08:02;9.55;;;3.38;;
51489;SDS011;57752;53.574;9.736;2023-08-01T10:13:03;8.60;;;2.83;;
51489;SDS011;57752;53.574;9.736;2023-08-01T10:18:03;8.77;;;2.72;;
51489;SDS011;57752;53.574;9.736;2023-08-01T10:23:04;10.37;;;2.90;;
51489;SDS011;57752;53.574;9.736;2023-08-01T10:28:05;11.00;;;2.92;;
51489;SDS011;57752;53.574;9.736;2023-08-01T10:33:05;11.43;;;3.10;;
51489;SDS011;57752;53.574;9.736;2023-08-01T10:38:12;9.60;;;2.90;;
51489;SDS011;57752;53.574;9.736;2023-08-01T10:43:22;10.95;;;2.30;;
51489;SDS011;57752;53.574;9.736;2023-08-01T10:48:22;11.23;;;2.67;;
51489;SDS011;57752;53.574;9.736;2023-08-01T10:53:22;9.70;;;2.75;;
51489;SDS011;57752;53.574;9.736;2023-08-01T10:58:26;15.85;;;3.47;;
51489;SDS011;57752;53.574;9.736;2023-08-01T11:03:33;15.25;;;3.75;;
51489;SDS011;57752;53.574;9.736;2023-08-01T11:08:40;11.43;;;3.25;;
51489;SDS011;57752;53.574;9.736;2023-08-01T11:13:40;8.15;;;2.78;;
51489;SDS011;57752;53.574;9.736;2023-08-01T11:18:44;7.93;;;2.45;;
51489;SDS011;57752;53.574;9.736;2023-08-01T11:23:45;10.15;;;2.60;;
51489;SDS011;57752;53.574;9.736;2023-08-01T11:28:45;8.57;;;2.40;;
51489;SDS011;57752;53.574;9.736;2023-08-01T11:33:54;6.43;;;2.00;;
51489;SDS011;57752;53.574;9.736;2023-08-01T11:38:56;7.88;;;1.90;;
51489;SDS011;57752;53.574;9.736;2023-08-01T11:44:00;6.18;;;1.80;;
51489;SDS011;57752;53.574;9.736;2023-08-01T11:49:01;8.68;;;2.35;;
51489;SDS011;57752;53.574;9.736;2023-08-01T11:54:02;6.15;;;1.88;;
51489;SDS011;57752;53.574;9.736;2023-08-01T11:59:09;7.57;;;2.10;;
51489;SDS011;57752;53.574;9.736;2023-08-01T12:04:10;7.72;;;2.10;;
51489;SDS011;57752;53.574;9.736;2023-08-01T12:09:11;8.23;;;2.40;;
51489;SDS011;57752;53.574;9.736;2023-08-01T12:14:14;7.63;;;2.30;;
51489;SDS011;57752;53.574;9.736;2023-08-01T12:19:18;9.90;;;2.40;;
51489;SDS011;57752;53.574;9.736;2023-08-01T12:24:19;8.45;;;2.53;;
51489;SDS011;57752;53.574;9.736;2023-08-01T12:29:19;8.45;;;2.40;;
51489;SDS011;57752;53.574;9.736;2023-08-01T12:34:19;9.52;;;2.88;;
51489;SDS011;57752;53.574;9.736;2023-08-01T12:39:19;7.68;;;2.28;;
51489;SDS011;57752;53.574;9.736;2023-08-01T12:44:20;8.17;;;2.23;;
51489;SDS011;57752;53.574;9.736;2023-08-01T12:49:20;8.88;;;2.63;;
51489;SDS011;57752;53.574;9.736;2023-08-01T12:54:21;12.55;;;2.85;;
51489;SDS011;57752;53.574;9.736;2023-08-01T12:59:21;9.60;;;2.92;;
51489;SDS011;57752;53.574;9.736;2023-08-01T13:04:21;9.18;;;2.95;;
51489;SDS011;57752;53.574;9.736;2023-08-01T13:09:21;9.75;;;3.00;;
51489;SDS011;57752;53.574;9.736;2023-08-01T13:14:22;11.00;;;3.10;;
51489;SDS011;57752;53.574;9.736;2023-08-01T13:19:23;10.20;;;3.47;;
51489;SDS011;57752;53.574;9.736;2023-08-01T13:24:23;10.40;;;3.53;;
51489;SDS011;57752;53.574;9.736;2023-08-01T13:29:23;10.68;;;3.47;;
51489;SDS011;57752;53.574;9.736;2023-08-01T13:34:23;8.60;;;2.80;;
51489;SDS011;57752;53.574;9.736;2023-08-01T13:39:24;9.93;;;2.88;;
51489;SDS011;57752;53.574;9.736;2023-08-01T13:44:25;10.00;;;2.65;;
51489;SDS011;57752;53.574;9.736;2023-08-01T13:49:25;8.68;;;2.45;;
51489;SDS011;57752;53.574;9.736;2023-08-01T13:54:25;13.75;;;2.35;;
51489;SDS011;57752;53.574;9.736;2023-08-01T13:59:25;11.63;;;2.38;;
51489;SDS011;57752;53.574;9.736;2023-08-01T14:04:25;7.18;;;1.90;;
51489;SDS011;57752;53.574;9.736;2023-08-01T14:09:26;8.57;;;2.72;;
51489;SDS011;57752;53.574;9.736;2023-08-01T14:14:26;7.20;;;2.17;;
51489;SDS011;57752;53.574;9.736;2023-08-01T14:19:26;8.15;;;2.10;;
51489;SDS011;57752;53.574;9.736;2023-08-01T14:24:29;9.10;;;2.55;;
51489;SDS011;57752;53.574;9.736;2023-08-01T14:29:29;9.35;;;2.42;;
51489;SDS011;57752;53.574;9.736;2023-08-01T14:34:30;10.50;;;2.60;;
51489;SDS011;57752;53.574;9.736;2023-08-01T14:39:30;9.27;;;3.05;;
51489;SDS011;57752;53.574;9.736;2023-08-01T14:44:30;12.93;;;2.80;;
51489;SDS011;57752;53.574;9.736;2023-08-01T14:49:30;8.18;;;2.55;;
51489;SDS011;57752;53.574;9.736;2023-08-01T14:54:30;9.30;;;2.58;;
51489;SDS011;57752;53.574;9.736;2023-08-01T14:59:31;10.52;;;2.85;;
51489;SDS011;57752;53.574;9.736;2023-08-01T15:04:31;7.93;;;2.53;;
51489;SDS011;57752;53.574;9.736;2023-08-01T15:09:31;8.48;;;2.78;;
51489;SDS011;57752;53.574;9.736;2023-08-01T15:14:31;10.68;;;3.08;;
51489;SDS011;57752;53.574;9.736;2023-08-01T15:19:32;12.57;;;3.30;;
51489;SDS011;57752;53.574;9.736;2023-08-01T15:24:32;8.88;;;2.70;;
51489;SDS011;57752;53.574;9.736;2023-08-01T15:29:32;9.10;;;2.80;;
51489;SDS011;57752;53.574;9.736;2023-08-01T15:34:32;8.80;;;2.43;;
51489;SDS011;57752;53.574;9.736;2023-08-01T15:39:33;11.25;;;2.65;;
51489;SDS011;57752;53.574;9.736;2023-08-01T15:44:33;15.68;;;3.20;;
51489;SDS011;57752;53.574;9.736;2023-08-01T15:49:33;13.63;;;2.88;;
51489;SDS011;57752;53.574;9.736;2023-08-01T15:54:33;15.07;;;3.35;;
51489;SDS011;57752;53.574;9.736;2023-08-01T15:59:33;14.23;;;3.25;;
51489;SDS011;57752;53.574;9.736;2023-08-01T16:04:34;13.45;;;3.13;;
51489;SDS011;57752;53.574;9.736;2023-08-01T16:09:34;10.23;;;2.50;;
51489;SDS011;57752;53.574;9.736;2023-08-01T16:14:34;11.80;;;2.67;;
51489;SDS011;57752;53.574;9.736;2023-08-01T16:19:34;10.07;;;2.80;;
51489;SDS011;57752;53.574;9.736;2023-08-01T16:24:34;11.30;;;2.60;;
51489;SDS011;57752;53.574;9.736;2023-08-01T16:29:35;10.90;;;2.70;;
51489;SDS011;57752;53.574;9.736;2023-08-01T16:34:35;10.73;;;3.05;;
51489;SDS011;57752;53.574;9.736;2023-08-01T16:39:35;11.73;;;3.03;;
51489;SDS011;57752;53.574;9.736;2023-08-01T16:44:35;11.23;;;3.00;;
51489;SDS011;57752;53.574;9.736;2023-08-01T16:49:36;12.88;;;3.45;;
51489;SDS011;57752;53.574;9.736;2023-08-01T16:54:36;13.40;;;3.17;;
51489;SDS011;57752;53.574;9.736;2023-08-01T16:59:36;11.95;;;2.95;;
51489;SDS011;57752;53.574;9.736;2023-08-01T17:04:37;10.38;;;3.33;;
51489;SDS011;57752;53.574;9.736;2023-08-01T17:09:38;13.27;;;3.40;;
51489;SDS011;57752;53.574;9.736;2023-08-01T17:14:38;10.48;;;3.17;;
51489;SDS011;57752;53.574;9.736;2023-08-01T17:19:38;12.43;;;3.13;;
51489;SDS011;57752;53.574;9.736;2023-08-01T17:24:38;8.95;;;2.80;;
51489;SDS011;57752;53.574;9.736;2023-08-01T17:29:38;9.27;;;2.60;;
51489;SDS011;57752;53.574;9.736;2023-08-01T17:34:39;14.10;;;3.05;;
51489;SDS011;57752;53.574;9.736;2023-08-01T17:39:39;9.90;;;2.88;;
51489;SDS011;57752;53.574;9.736;2023-08-01T17:44:39;10.63;;;3.00;;
51489;SDS011;57752;53.574;9.736;2023-08-01T17:49:39;10.02;;;2.78;;
51489;SDS011;57752;53.574;9.736;2023-08-01T17:54:39;14.20;;;3.28;;
51489;SDS011;57752;53.574;9.736;2023-08-01T17:59:39;11.02;;;2.85;;
51489;SDS011;57752;53.574;9.736;2023-08-01T18:04:41;10.10;;;3.08;;
51489;SDS011;57752;53.574;9.736;2023-08-01T18:09:43;13.27;;;3.53;;
51489;SDS011;57752;53.574;9.736;2023-08-01T18:14:43;10.75;;;3.22;;
51489;SDS011;57752;53.574;9.736;2023-08-01T18:19:43;11.88;;;3.75;;
51489;SDS011;57752;53.574;9.736;2023-08-01T18:24:44;11.98;;;3.40;;
51489;SDS011;57752;53.574;9.736;2023-08-01T18:29:44;11.70;;;4.00;;
51489;SDS011;57752;53.574;9.736;2023-08-01T18:34:44;10.48;;;3.50;;
51489;SDS011;57752;53.574;9.736;2023-08-01T18:39:44;15.18;;;4.00;;
51489;SDS011;57752;53.574;9.736;2023-08-01T18:44:44;11.85;;;3.40;;
51489;SDS011;57752;53.574;9.736;2023-08-01T18:49:44;9.52;;;3.20;;
51489;SDS011;57752;53.574;9.736;2023-08-01T18:54:52;10.18;;;3.38;;
51489;SDS011;57752;53.574;9.736;2023-08-01T18:59:52;10.80;;;3.78;;
51489;SDS011;57752;53.574;9.736;2023-08-01T19:04:52;10.10;;;3.38;;
51489;SDS011;57752;53.574;9.736;2023-08-01T19:09:52;11.43;;;3.47;;
51489;SDS011;57752;53.574;9.736;2023-08-01T19:14:53;11.25;;;3.50;;
51489;SDS011;57752;53.574;9.736;2023-08-01T19:19:53;12.35;;;3.28;;
51489;SDS011;57752;53.574;9.736;2023-08-01T19:24:53;12.98;;;3.58;;
51489;SDS011;57752;53.574;9.736;2023-08-01T19:29:53;10.25;;;3.47;;
51489;SDS011;57752;53.574;9.736;2023-08-01T19:34:54;10.93;;;3.90;;
51489;SDS011;57752;53.574;9.736;2023-08-01T19:39:54;11.30;;;3.80;;
51489;SDS011;57752;53.574;9.736;2023-08-01T19:44:54;13.53;;;3.87;;
51489;SDS011;57752;53.574;9.736;2023-08-01T19:49:54;11.10;;;3.60;;
51489;SDS011;57752;53.574;9.736;2023-08-01T19:54:55;10.63;;;3.63;;
51489;SDS011;57752;53.574;9.736;2023-08-01T19:59:55;11.95;;;3.45;;
51489;SDS011;57752;53.574;9.736;2023-08-01T20:04:55;9.15;;;3.38;;
51489;SDS011;57752;53.574;9.736;2023-08-01T20:09:56;11.75;;;3.50;;
51489;SDS011;57752;53.574;9.736;2023-08-01T20:14:57;10.43;;;3.17;;
51489;SDS011;57752;53.574;9.736;2023-08-01T20:19:57;10.57;;;3.53;;
51489;SDS011;57752;53.574;9.736;2023-08-01T20:24:57;9.75;;;3.50;;
51489;SDS011;57752;53.574;9.736;2023-08-01T20:29:57;10.60;;;3.50;;
51489;SDS011;57752;53.574;9.736;2023-08-01T20:34:57;11.65;;;3.70;;
51489;SDS011;57752;53.574;9.736;2023-08-01T20:39:58;11.73;;;3.58;;
51489;SDS011;57752;53.574;9.736;2023-08-01T20:44:59;12.75;;;4.03;;
51489;SDS011;57752;53.574;9.736;2023-08-01T20:49:59;10.10;;;3.42;;
51489;SDS011;57752;53.574;9.736;2023-08-01T20:55:01;10.57;;;3.80;;
51489;SDS011;57752;53.574;9.736;2023-08-01T21:00:01;12.40;;;3.88;;
51489;SDS011;57752;53.574;9.736;2023-08-01T21:05:01;13.40;;;4.53;;
51489;SDS011;57752;53.574;9.736;2023-08-01T21:10:01;11.52;;;4.00;;
51489;SDS011;57752;53.574;9.736;2023-08-01T21:15:02;10.68;;;4.10;;
51489;SDS011;57752;53.574;9.736;2023-08-01T21:20:03;11.20;;;3.53;;
51489;SDS011;57752;53.574;9.736;2023-08-01T21:25:04;11.30;;;3.83;;
51489;SDS011;57752;53.574;9.736;2023-08-01T21:30:04;11.23;;;4.00;;
51489;SDS011;57752;53.574;9.736;2023-08-01T21:35:05;13.90;;;4.03;;
51489;SDS011;57752;53.574;9.736;2023-08-01T21:40:05;12.10;;;3.95;;
51489;SDS011;57752;53.574;9.736;2023-08-01T21:45:07;10.77;;;4.10;;
51489;SDS011;57752;53.574;9.736;2023-08-01T21:50:07;13.70;;;4.18;;
51489;SDS011;57752;53.574;9.736;2023-08-01T21:55:08;13.17;;;4.30;;
51489;SDS011;57752;53.574;9.736;2023-08-01T22:00:08;11.93;;;4.07;;
51489;SDS011;57752;53.574;9.736;2023-08-01T22:05:10;13.20;;;4.40;;
51489;SDS011;57752;53.574;9.736;2023-08-01T22:10:10;13.70;;;4.53;;
51489;SDS011;57752;53.574;9.736;2023-08-01T22:15:10;13.75;;;5.28;;
51489;SDS011;57752;53.574;9.736;2023-08-01T22:20:10;11.70;;;3.80;;
51489;SDS011;57752;53.574;9.736;2023-08-01T22:25:11;15.27;;;4.55;;
51489;SDS011;57752;53.574;9.736;2023-08-01T22:30:11;14.10;;;4.50;;
51489;SDS011;57752;53.574;9.736;2023-08-01T22:35:11;11.53;;;4.80;;
51489;SDS011;57752;53.574;9.736;2023-08-01T22:40:11;12.25;;;4.18;;
51489;SDS011;57752;53.574;9.736;2023-08-01T22:45:11;14.00;;;4.50;;
51489;SDS011;57752;53.574;9.736;2023-08-01T22:50:12;17.42;;;5.13;;
51489;SDS011;57752;53.574;9.736;2023-08-01T22:55:12;15.20;;;5.95;;
51489;SDS011;57752;53.574;9.736;2023-08-01T23:00:13;15.20;;;5.55;;
51489;SDS011;57752;53.574;9.736;2023-08-01T23:05:13;13.52;;;5.57;;
51489;SDS011;57752;53.574;9.736;2023-08-01T23:10:13;15.73;;;5.25;;
51489;SDS011;57752;53.574;9.736;2023-08-01T23:15:13;14.05;;;5.63;;
51489;SDS011;57752;53.574;9.736;2023-08-01T23:20:13;11.75;;;5.93;;
51489;SDS011;57752;53.574;9.736;2023-08-01T23:25:14;14.45;;;6.22;;
51489;SDS011;57752;53.574;9.736;2023-08-01T23:30:14;13.07;;;5.90;;
51489;SDS011;57752;53.574;9.736;2023-08-01T23:35:14;14.73;;;6.45;;
51489;SDS011;57752;53.574;9.736;2023-08-01T23:40:15;17.02;;;7.38;;
51489;SDS011;57752;53.574;9.736;2023-08-01T23:45:15;14.68;;;8.38;;
51489;SDS011;57752;53.574;9.736;2023-08-01T23:50:16;18.05;;;7.65;;
51489;SDS011;57752;53.574;9.736;2023-08-01T23:55:16;18.35;;;8.55;;
